sensor_id;sensor_type;location;lat;lon;timestamp;P1;durP1;ratioP1;P2;durP2;ratioP2
79137;SDS011;68544;45.566;10.238;2023-05-15T00:01:02;5.17;;;3.20;;
79137;SDS011;68544;45.566;10.238;2023-05-15T00:03:28;2.67;;;2.07;;
79137;SDS011;68544;45.566;10.238;2023-05-15T00:05:53;5.33;;;2.43;;
79137;SDS011;68544;45.566;10.238;2023-05-15T00:08:19;4.67;;;2.37;;
79137;SDS011;68544;45.566;10.238;2023-05-15T00:10:44;3.57;;;2.63;;
79137;SDS011;68544;45.566;10.238;2023-05-15T00:13:09;4.97;;;2.47;;
79137;SDS011;68544;45.566;10.238;2023-05-15T00:15:35;5.43;;;2.50;;
79137;SDS011;68544;45.566;10.238;2023-05-15T00:18:00;5.63;;;2.70;;
79137;SDS011;68544;45.566;10.238;2023-05-15T00:20:25;3.73;;;2.83;;
79137;SDS011;68544;45.566;10.238;2023-05-15T00:22:51;3.27;;;2.47;;
79137;SDS011;68544;45.566;10.238;2023-05-15T00:25:16;4.90;;;2.50;;
79137;SDS011;68544;45.566;10.238;2023-05-15T00:27:43;4.32;;;2.80;;
79137;SDS011;68544;45.566;10.238;2023-05-15T00:30:09;4.55;;;3.17;;
79137;SDS011;68544;45.566;10.238;2023-05-15T00:32:35;6.80;;;3.53;;
79137;SDS011;68544;45.566;10.238;2023-05-15T00:35:00;3.20;;;2.90;;
79137;SDS011;68544;45.566;10.238;2023-05-15T00:37:25;3.57;;;3.13;;
79137;SDS011;68544;45.566;10.238;2023-05-15T00:39:51;6.07;;;3.33;;
79137;SDS011;68544;45.566;10.238;2023-05-15T00:42:16;5.10;;;3.70;;
79137;SDS011;68544;45.566;10.238;2023-05-15T00:44:42;4.25;;;3.78;;
79137;SDS011;68544;45.566;10.238;2023-05-15T00:47:09;6.78;;;3.60;;
79137;SDS011;68544;45.566;10.238;2023-05-15T00:49:36;11.52;;;3.95;;
79137;SDS011;68544;45.566;10.238;2023-05-15T00:52:01;3.97;;;3.28;;
79137;SDS011;68544;45.566;10.238;2023-05-15T00:54:27;5.38;;;3.50;;
79137;SDS011;68544;45.566;10.238;2023-05-15T00:56:55;3.78;;;3.20;;
79137;SDS011;68544;45.566;10.238;2023-05-15T00:59:22;6.13;;;3.22;;
79137;SDS011;68544;45.566;10.238;2023-05-15T01:01:50;5.13;;;3.40;;
79137;SDS011;68544;45.566;10.238;2023-05-15T01:04:15;8.27;;;3.37;;
79137;SDS011;68544;45.566;10.238;2023-05-15T01:06:41;4.17;;;2.70;;
79137;SDS011;68544;45.566;10.238;2023-05-15T01:09:06;3.05;;;2.63;;
79137;SDS011;68544;45.566;10.238;2023-05-15T01:11:34;4.25;;;3.05;;
79137;SDS011;68544;45.566;10.238;2023-05-15T01:14:02;10.95;;;2.90;;
79137;SDS011;68544;45.566;10.238;2023-05-15T01:16:31;4.05;;;3.03;;
79137;SDS011;68544;45.566;10.238;2023-05-15T01:18:58;2.47;;;2.28;;
79137;SDS011;68544;45.566;10.238;2023-05-15T01:21:32;3.93;;;2.80;;
79137;SDS011;68544;45.566;10.238;2023-05-15T01:32:09;4.70;;;2.70;;
79137;SDS011;68544;45.566;10.238;2023-05-15T01:34:52;4.53;;;2.83;;
79137;SDS011;68544;45.566;10.238;2023-05-15T01:37:26;4.07;;;2.30;;
79137;SDS011;68544;45.566;10.238;2023-05-15T01:39:54;3.13;;;2.30;;
79137;SDS011;68544;45.566;10.238;2023-05-15T01:42:26;4.38;;;2.20;;
79137;SDS011;68544;45.566;10.238;2023-05-15T01:44:55;4.30;;;2.30;;
79137;SDS011;68544;45.566;10.238;2023-05-15T01:47:30;3.63;;;2.30;;
79137;SDS011;68544;45.566;10.238;2023-05-15T01:50:00;3.10;;;2.50;;
79137;SDS011;68544;45.566;10.238;2023-05-15T01:52:31;4.57;;;2.42;;
79137;SDS011;68544;45.566;10.238;2023-05-15T01:55:00;3.97;;;2.17;;
79137;SDS011;68544;45.566;10.238;2023-05-15T01:57:27;2.83;;;2.20;;
79137;SDS011;68544;45.566;10.238;2023-05-15T01:59:55;3.95;;;1.77;;
79137;SDS011;68544;45.566;10.238;2023-05-15T02:02:22;2.20;;;1.90;;
79137;SDS011;68544;45.566;10.238;2023-05-15T02:04:48;3.25;;;1.83;;
79137;SDS011;68544;45.566;10.238;2023-05-15T02:07:15;3.67;;;1.83;;
79137;SDS011;68544;45.566;10.238;2023-05-15T02:09:41;2.60;;;1.67;;
79137;SDS011;68544;45.566;10.238;2023-05-15T02:12:07;2.88;;;1.80;;
79137;SDS011;68544;45.566;10.238;2023-05-15T02:14:33;2.83;;;1.80;;
79137;SDS011;68544;45.566;10.238;2023-05-15T02:16:59;5.63;;;1.80;;
79137;SDS011;68544;45.566;10.238;2023-05-15T02:19:24;4.87;;;2.17;;
79137;SDS011;68544;45.566;10.238;2023-05-15T02:21:50;9.23;;;1.67;;
79137;SDS011;68544;45.566;10.238;2023-05-15T02:24:15;3.57;;;2.17;;
79137;SDS011;68544;45.566;10.238;2023-05-15T02:26:50;6.90;;;2.03;;
79137;SDS011;68544;45.566;10.238;2023-05-15T02:29:28;4.90;;;2.50;;
79137;SDS011;68544;45.566;10.238;2023-05-15T02:32:01;2.33;;;1.83;;
79137;SDS011;68544;45.566;10.238;2023-05-15T02:37:12;3.20;;;1.83;;
79137;SDS011;68544;45.566;10.238;2023-05-15T02:39:40;4.38;;;2.08;;
79137;SDS011;68544;45.566;10.238;2023-05-15T02:42:08;3.05;;;2.30;;
79137;SDS011;68544;45.566;10.238;2023-05-15T02:44:35;4.57;;;2.17;;
79137;SDS011;68544;45.566;10.238;2023-05-15T02:47:01;2.58;;;2.22;;
79137;SDS011;68544;45.566;10.238;2023-05-15T02:49:28;3.17;;;2.10;;
79137;SDS011;68544;45.566;10.238;2023-05-15T02:51:53;2.30;;;2.10;;
79137;SDS011;68544;45.566;10.238;2023-05-15T02:54:18;5.07;;;2.57;;
79137;SDS011;68544;45.566;10.238;2023-05-15T02:56:45;2.72;;;2.28;;
79137;SDS011;68544;45.566;10.238;2023-05-15T02:59:10;2.77;;;2.50;;
79137;SDS011;68544;45.566;10.238;2023-05-15T03:01:37;3.65;;;2.05;;
79137;SDS011;68544;45.566;10.238;2023-05-15T03:04:02;2.60;;;2.10;;
79137;SDS011;68544;45.566;10.238;2023-05-15T03:06:28;2.93;;;2.10;;
79137;SDS011;68544;45.566;10.238;2023-05-15T03:08:53;2.20;;;1.80;;
79137;SDS011;68544;45.566;10.238;2023-05-15T03:11:18;2.43;;;1.70;;
79137;SDS011;68544;45.566;10.238;2023-05-15T03:13:45;4.20;;;1.67;;
79137;SDS011;68544;45.566;10.238;2023-05-15T03:16:10;6.23;;;1.70;;
79137;SDS011;68544;45.566;10.238;2023-05-15T03:18:35;3.53;;;1.80;;
79137;SDS011;68544;45.566;10.238;2023-05-15T03:21:01;2.90;;;1.80;;
79137;SDS011;68544;45.566;10.238;2023-05-15T03:23:26;5.23;;;1.97;;
79137;SDS011;68544;45.566;10.238;2023-05-15T03:25:51;3.67;;;2.00;;
79137;SDS011;68544;45.566;10.238;2023-05-15T03:28:16;2.20;;;1.57;;
79137;SDS011;68544;45.566;10.238;2023-05-15T03:30:42;2.87;;;1.80;;
79137;SDS011;68544;45.566;10.238;2023-05-15T03:35:33;4.33;;;2.23;;
79137;SDS011;68544;45.566;10.238;2023-05-15T03:38:00;2.55;;;1.60;;
79137;SDS011;68544;45.566;10.238;2023-05-15T03:40:25;2.20;;;2.00;;
79137;SDS011;68544;45.566;10.238;2023-05-15T03:42:50;3.43;;;2.00;;
79137;SDS011;68544;45.566;10.238;2023-05-15T03:45:17;3.42;;;1.90;;
79137;SDS011;68544;45.566;10.238;2023-05-15T03:47:43;3.72;;;2.00;;
79137;SDS011;68544;45.566;10.238;2023-05-15T03:50:08;2.17;;;1.73;;
79137;SDS011;68544;45.566;10.238;2023-05-15T03:52:34;6.03;;;1.77;;
79137;SDS011;68544;45.566;10.238;2023-05-15T03:55:00;4.73;;;1.53;;
79137;SDS011;68544;45.566;10.238;2023-05-15T03:57:25;4.15;;;1.92;;
79137;SDS011;68544;45.566;10.238;2023-05-15T03:59:51;4.13;;;1.93;;
79137;SDS011;68544;45.566;10.238;2023-05-15T04:02:16;2.93;;;1.87;;
79137;SDS011;68544;45.566;10.238;2023-05-15T04:04:41;2.53;;;1.73;;
79137;SDS011;68544;45.566;10.238;2023-05-15T04:07:08;5.43;;;1.77;;
79137;SDS011;68544;45.566;10.238;2023-05-15T04:09:33;2.40;;;1.50;;
79137;SDS011;68544;45.566;10.238;2023-05-15T04:11:59;3.77;;;2.10;;
79137;SDS011;68544;45.566;10.238;2023-05-15T04:14:24;2.37;;;1.80;;
79137;SDS011;68544;45.566;10.238;2023-05-15T04:16:49;2.40;;;2.10;;
79137;SDS011;68544;45.566;10.238;2023-05-15T04:19:15;4.43;;;2.27;;
79137;SDS011;68544;45.566;10.238;2023-05-15T04:21:40;2.40;;;2.07;;
79137;SDS011;68544;45.566;10.238;2023-05-15T04:24:06;3.00;;;2.10;;
79137;SDS011;68544;45.566;10.238;2023-05-15T04:26:32;2.15;;;1.90;;
79137;SDS011;68544;45.566;10.238;2023-05-15T04:28:58;3.75;;;2.20;;
79137;SDS011;68544;45.566;10.238;2023-05-15T04:31:24;3.33;;;1.77;;
79137;SDS011;68544;45.566;10.238;2023-05-15T04:33:51;2.00;;;1.67;;
79137;SDS011;68544;45.566;10.238;2023-05-15T04:36:16;1.80;;;1.53;;
79137;SDS011;68544;45.566;10.238;2023-05-15T04:38:41;3.40;;;1.70;;
79137;SDS011;68544;45.566;10.238;2023-05-15T04:41:07;2.20;;;1.57;;
79137;SDS011;68544;45.566;10.238;2023-05-15T04:43:32;2.17;;;1.80;;
79137;SDS011;68544;45.566;10.238;2023-05-15T04:45:57;2.10;;;1.60;;
79137;SDS011;68544;45.566;10.238;2023-05-15T04:48:22;2.03;;;1.63;;
79137;SDS011;68544;45.566;10.238;2023-05-15T04:50:48;3.00;;;1.50;;
79137;SDS011;68544;45.566;10.238;2023-05-15T04:53:13;1.97;;;1.47;;
79137;SDS011;68544;45.566;10.238;2023-05-15T04:55:38;3.63;;;1.70;;
79137;SDS011;68544;45.566;10.238;2023-05-15T04:58:04;4.00;;;1.77;;
79137;SDS011;68544;45.566;10.238;2023-05-15T05:00:29;2.63;;;1.50;;
79137;SDS011;68544;45.566;10.238;2023-05-15T05:02:55;2.78;;;1.40;;
79137;SDS011;68544;45.566;10.238;2023-05-15T05:05:21;4.03;;;1.60;;
79137;SDS011;68544;45.566;10.238;2023-05-15T05:07:46;5.43;;;1.80;;
79137;SDS011;68544;45.566;10.238;2023-05-15T05:10:11;4.73;;;1.57;;
79137;SDS011;68544;45.566;10.238;2023-05-15T05:12:37;2.87;;;1.60;;
79137;SDS011;68544;45.566;10.238;2023-05-15T05:15:03;2.20;;;1.60;;
79137;SDS011;68544;45.566;10.238;2023-05-15T05:17:28;3.90;;;2.38;;
79137;SDS011;68544;45.566;10.238;2023-05-15T05:19:55;3.97;;;2.42;;
79137;SDS011;68544;45.566;10.238;2023-05-15T05:22:20;5.37;;;2.20;;
79137;SDS011;68544;45.566;10.238;2023-05-15T05:24:46;4.30;;;2.43;;
79137;SDS011;68544;45.566;10.238;2023-05-15T05:27:11;3.97;;;2.07;;
79137;SDS011;68544;45.566;10.238;2023-05-15T05:29:36;4.27;;;1.93;;
79137;SDS011;68544;45.566;10.238;2023-05-15T05:32:03;4.53;;;2.30;;
79137;SDS011;68544;45.566;10.238;2023-05-15T05:34:30;3.78;;;1.90;;
79137;SDS011;68544;45.566;10.238;2023-05-15T05:36:55;3.67;;;1.80;;
79137;SDS011;68544;45.566;10.238;2023-05-15T05:39:20;4.07;;;1.73;;
79137;SDS011;68544;45.566;10.238;2023-05-15T05:41:45;3.90;;;1.70;;
79137;SDS011;68544;45.566;10.238;2023-05-15T05:44:11;3.57;;;1.70;;
79137;SDS011;68544;45.566;10.238;2023-05-15T05:46:36;2.47;;;1.53;;
79137;SDS011;68544;45.566;10.238;2023-05-15T05:49:01;3.30;;;1.50;;
79137;SDS011;68544;45.566;10.238;2023-05-15T05:51:27;3.83;;;1.33;;
79137;SDS011;68544;45.566;10.238;2023-05-15T05:53:52;4.10;;;1.30;;
79137;SDS011;68544;45.566;10.238;2023-05-15T05:56:17;2.57;;;1.30;;
79137;SDS011;68544;45.566;10.238;2023-05-15T05:58:43;2.80;;;1.40;;
79137;SDS011;68544;45.566;10.238;2023-05-15T06:01:08;1.80;;;1.03;;
79137;SDS011;68544;45.566;10.238;2023-05-15T06:03:34;4.22;;;1.50;;
79137;SDS011;68544;45.566;10.238;2023-05-15T06:06:00;4.55;;;1.85;;
79137;SDS011;68544;45.566;10.238;2023-05-15T06:08:27;1.67;;;1.17;;
79137;SDS011;68544;45.566;10.238;2023-05-15T06:10:53;1.85;;;1.10;;
79137;SDS011;68544;45.566;10.238;2023-05-15T06:13:18;2.73;;;1.20;;
79137;SDS011;68544;45.566;10.238;2023-05-15T06:15:44;1.97;;;1.00;;
79137;SDS011;68544;45.566;10.238;2023-05-15T06:18:10;4.82;;;1.20;;
79137;SDS011;68544;45.566;10.238;2023-05-15T06:20:35;2.83;;;0.70;;
79137;SDS011;68544;45.566;10.238;2023-05-15T06:23:01;3.13;;;1.00;;
79137;SDS011;68544;45.566;10.238;2023-05-15T06:25:26;1.40;;;0.90;;
79137;SDS011;68544;45.566;10.238;2023-05-15T06:27:51;1.47;;;1.07;;
79137;SDS011;68544;45.566;10.238;2023-05-15T06:30:16;2.33;;;0.90;;
79137;SDS011;68544;45.566;10.238;2023-05-15T06:32:42;4.03;;;1.17;;
79137;SDS011;68544;45.566;10.238;2023-05-15T06:35:08;3.20;;;1.10;;
79137;SDS011;68544;45.566;10.238;2023-05-15T06:37:34;3.05;;;1.15;;
79137;SDS011;68544;45.566;10.238;2023-05-15T06:40:00;1.40;;;1.00;;
79137;SDS011;68544;45.566;10.238;2023-05-15T06:42:25;2.23;;;0.87;;
79137;SDS011;68544;45.566;10.238;2023-05-15T06:44:51;1.88;;;0.90;;
79137;SDS011;68544;45.566;10.238;2023-05-15T06:47:16;2.30;;;0.80;;
79137;SDS011;68544;45.566;10.238;2023-05-15T06:49:41;1.83;;;0.80;;
79137;SDS011;68544;45.566;10.238;2023-05-15T06:52:07;1.20;;;0.77;;
79137;SDS011;68544;45.566;10.238;2023-05-15T06:54:32;4.50;;;1.20;;
79137;SDS011;68544;45.566;10.238;2023-05-15T06:56:57;2.60;;;0.80;;
79137;SDS011;68544;45.566;10.238;2023-05-15T06:59:23;4.20;;;0.80;;
79137;SDS011;68544;45.566;10.238;2023-05-15T07:01:48;2.90;;;1.00;;
79137;SDS011;68544;45.566;10.238;2023-05-15T07:04:13;1.10;;;0.70;;
79137;SDS011;68544;45.566;10.238;2023-05-15T07:06:39;3.03;;;0.83;;
79137;SDS011;68544;45.566;10.238;2023-05-15T07:09:04;1.53;;;0.90;;
79137;SDS011;68544;45.566;10.238;2023-05-15T07:11:30;1.85;;;0.90;;
79137;SDS011;68544;45.566;10.238;2023-05-15T07:13:57;1.80;;;0.90;;
79137;SDS011;68544;45.566;10.238;2023-05-15T07:16:22;1.67;;;0.83;;
79137;SDS011;68544;45.566;10.238;2023-05-15T07:18:48;3.13;;;1.17;;
79137;SDS011;68544;45.566;10.238;2023-05-15T07:21:13;3.30;;;1.30;;
79137;SDS011;68544;45.566;10.238;2023-05-15T07:23:38;2.97;;;1.80;;
79137;SDS011;68544;45.566;10.238;2023-05-15T07:26:04;2.53;;;1.70;;
79137;SDS011;68544;45.566;10.238;2023-05-15T07:28:29;3.03;;;2.00;;
79137;SDS011;68544;45.566;10.238;2023-05-15T07:30:54;2.47;;;2.27;;
79137;SDS011;68544;45.566;10.238;2023-05-15T07:33:20;3.33;;;2.20;;
79137;SDS011;68544;45.566;10.238;2023-05-15T07:35:45;3.67;;;2.20;;
79137;SDS011;68544;45.566;10.238;2023-05-15T07:38:10;3.00;;;2.42;;
79137;SDS011;68544;45.566;10.238;2023-05-15T07:40:36;3.58;;;2.40;;
79137;SDS011;68544;45.566;10.238;2023-05-15T07:43:01;3.65;;;2.50;;
79137;SDS011;68544;45.566;10.238;2023-05-15T07:45:26;5.35;;;2.75;;
79137;SDS011;68544;45.566;10.238;2023-05-15T07:50:18;6.10;;;2.30;;
79137;SDS011;68544;45.566;10.238;2023-05-15T07:55:09;2.90;;;1.80;;
79137;SDS011;68544;45.566;10.238;2023-05-15T08:00:00;3.45;;;1.60;;
79137;SDS011;68544;45.566;10.238;2023-05-15T08:02:31;2.40;;;1.30;;
79137;SDS011;68544;45.566;10.238;2023-05-15T08:07:21;4.10;;;2.20;;
79137;SDS011;68544;45.566;10.238;2023-05-15T08:12:15;3.73;;;2.33;;
79137;SDS011;68544;45.566;10.238;2023-05-15T08:14:44;3.47;;;2.92;;
79137;SDS011;68544;45.566;10.238;2023-05-15T08:17:19;4.78;;;2.58;;
79137;SDS011;68544;45.566;10.238;2023-05-15T08:19:45;3.35;;;2.28;;
79137;SDS011;68544;45.566;10.238;2023-05-15T08:22:11;6.55;;;2.92;;
79137;SDS011;68544;45.566;10.238;2023-05-15T08:24:37;3.30;;;2.90;;
79137;SDS011;68544;45.566;10.238;2023-05-15T08:27:03;5.10;;;3.00;;
79137;SDS011;68544;45.566;10.238;2023-05-15T08:29:30;7.13;;;3.15;;
79137;SDS011;68544;45.566;10.238;2023-05-15T08:31:55;3.70;;;2.90;;
79137;SDS011;68544;45.566;10.238;2023-05-15T08:34:21;4.07;;;2.50;;
79137;SDS011;68544;45.566;10.238;2023-05-15T08:36:46;4.35;;;2.70;;
79137;SDS011;68544;45.566;10.238;2023-05-15T08:39:11;3.50;;;2.40;;
79137;SDS011;68544;45.566;10.238;2023-05-15T08:41:39;4.07;;;2.58;;
79137;SDS011;68544;45.566;10.238;2023-05-15T08:44:25;3.45;;;2.90;;
79137;SDS011;68544;45.566;10.238;2023-05-15T08:46:52;3.40;;;2.67;;
79137;SDS011;68544;45.566;10.238;2023-05-15T08:52:10;4.00;;;2.67;;
79137;SDS011;68544;45.566;10.238;2023-05-15T08:54:35;4.25;;;2.90;;
79137;SDS011;68544;45.566;10.238;2023-05-15T08:57:03;4.40;;;2.70;;
79137;SDS011;68544;45.566;10.238;2023-05-15T08:59:29;3.47;;;2.50;;
79137;SDS011;68544;45.566;10.238;2023-05-15T09:01:55;4.53;;;2.60;;
79137;SDS011;68544;45.566;10.238;2023-05-15T09:04:21;3.17;;;2.53;;
79137;SDS011;68544;45.566;10.238;2023-05-15T09:06:46;4.47;;;2.47;;
79137;SDS011;68544;45.566;10.238;2023-05-15T09:09:12;3.15;;;2.00;;
79137;SDS011;68544;45.566;10.238;2023-05-15T09:11:44;3.60;;;2.55;;
79137;SDS011;68544;45.566;10.238;2023-05-15T09:14:10;3.58;;;2.85;;
79137;SDS011;68544;45.566;10.238;2023-05-15T09:16:36;4.97;;;2.88;;
79137;SDS011;68544;45.566;10.238;2023-05-15T09:19:02;3.60;;;2.90;;
79137;SDS011;68544;45.566;10.238;2023-05-15T09:21:29;3.25;;;2.90;;
79137;SDS011;68544;45.566;10.238;2023-05-15T09:24:17;3.22;;;2.60;;
79137;SDS011;68544;45.566;10.238;2023-05-15T09:26:46;3.10;;;2.42;;
79137;SDS011;68544;45.566;10.238;2023-05-15T09:29:25;3.15;;;2.67;;
79137;SDS011;68544;45.566;10.238;2023-05-15T09:31:51;3.65;;;2.60;;
79137;SDS011;68544;45.566;10.238;2023-05-15T09:34:17;3.70;;;2.20;;
79137;SDS011;68544;45.566;10.238;2023-05-15T09:36:42;3.00;;;2.65;;
79137;SDS011;68544;45.566;10.238;2023-05-15T09:39:09;3.05;;;2.30;;
79137;SDS011;68544;45.566;10.238;2023-05-15T09:41:34;5.90;;;2.72;;
79137;SDS011;68544;45.566;10.238;2023-05-15T09:44:06;2.88;;;2.35;;
79137;SDS011;68544;45.566;10.238;2023-05-15T09:46:42;3.95;;;2.63;;
79137;SDS011;68544;45.566;10.238;2023-05-15T09:49:08;3.50;;;2.25;;
79137;SDS011;68544;45.566;10.238;2023-05-15T09:51:33;4.03;;;1.98;;
79137;SDS011;68544;45.566;10.238;2023-05-15T09:53:58;2.83;;;2.53;;
79137;SDS011;68544;45.566;10.238;2023-05-15T09:56:24;3.10;;;2.15;;
79137;SDS011;68544;45.566;10.238;2023-05-15T09:58:53;2.13;;;1.80;;
79137;SDS011;68544;45.566;10.238;2023-05-15T10:01:21;3.85;;;2.30;;
79137;SDS011;68544;45.566;10.238;2023-05-15T10:03:56;4.88;;;2.33;;
79137;SDS011;68544;45.566;10.238;2023-05-15T10:06:22;3.28;;;2.40;;
79137;SDS011;68544;45.566;10.238;2023-05-15T10:08:51;2.95;;;2.33;;
79137;SDS011;68544;45.566;10.238;2023-05-15T10:11:18;2.90;;;2.60;;
79137;SDS011;68544;45.566;10.238;2023-05-15T10:13:45;5.07;;;2.10;;
79137;SDS011;68544;45.566;10.238;2023-05-15T10:16:11;3.67;;;2.08;;
79137;SDS011;68544;45.566;10.238;2023-05-15T10:18:38;3.92;;;3.00;;
79137;SDS011;68544;45.566;10.238;2023-05-15T10:21:05;4.20;;;2.60;;
79137;SDS011;68544;45.566;10.238;2023-05-15T10:23:33;2.90;;;2.60;;
79137;SDS011;68544;45.566;10.238;2023-05-15T10:26:01;4.53;;;2.53;;
79137;SDS011;68544;45.566;10.238;2023-05-15T10:28:30;2.40;;;2.10;;
79137;SDS011;68544;45.566;10.238;2023-05-15T10:31:00;3.67;;;2.60;;
79137;SDS011;68544;45.566;10.238;2023-05-15T10:33:27;3.15;;;2.40;;
79137;SDS011;68544;45.566;10.238;2023-05-15T10:35:54;3.33;;;2.75;;
79137;SDS011;68544;45.566;10.238;2023-05-15T10:38:20;3.72;;;2.50;;
79137;SDS011;68544;45.566;10.238;2023-05-15T10:40:46;7.53;;;2.67;;
79137;SDS011;68544;45.566;10.238;2023-05-15T10:43:13;5.35;;;2.38;;
79137;SDS011;68544;45.566;10.238;2023-05-15T10:45:39;2.92;;;2.63;;
79137;SDS011;68544;45.566;10.238;2023-05-15T10:48:05;3.50;;;2.35;;
79137;SDS011;68544;45.566;10.238;2023-05-15T10:50:32;2.90;;;2.30;;
79137;SDS011;68544;45.566;10.238;2023-05-15T10:52:57;2.42;;;2.22;;
79137;SDS011;68544;45.566;10.238;2023-05-15T10:55:24;3.15;;;2.50;;
79137;SDS011;68544;45.566;10.238;2023-05-15T10:57:50;2.53;;;2.15;;
79137;SDS011;68544;45.566;10.238;2023-05-15T11:02:47;2.78;;;2.15;;
79137;SDS011;68544;45.566;10.238;2023-05-15T11:05:13;3.33;;;2.67;;
79137;SDS011;68544;45.566;10.238;2023-05-15T11:07:39;3.42;;;2.50;;
79137;SDS011;68544;45.566;10.238;2023-05-15T11:12:55;3.97;;;2.70;;
79137;SDS011;68544;45.566;10.238;2023-05-15T11:15:25;3.58;;;2.38;;
79137;SDS011;68544;45.566;10.238;2023-05-15T11:18:03;4.28;;;2.90;;
79137;SDS011;68544;45.566;10.238;2023-05-15T11:20:33;4.45;;;2.83;;
79137;SDS011;68544;45.566;10.238;2023-05-15T11:23:03;4.50;;;2.58;;
79137;SDS011;68544;45.566;10.238;2023-05-15T11:25:29;3.33;;;2.47;;
79137;SDS011;68544;45.566;10.238;2023-05-15T11:27:56;4.57;;;3.13;;
79137;SDS011;68544;45.566;10.238;2023-05-15T11:30:22;3.88;;;2.83;;
79137;SDS011;68544;45.566;10.238;2023-05-15T11:35:29;4.57;;;3.10;;
79137;SDS011;68544;45.566;10.238;2023-05-15T11:40:29;3.97;;;3.08;;
79137;SDS011;68544;45.566;10.238;2023-05-15T11:43:03;5.07;;;3.47;;
79137;SDS011;68544;45.566;10.238;2023-05-15T11:45:33;3.53;;;3.10;;
79137;SDS011;68544;45.566;10.238;2023-05-15T11:48:06;5.28;;;3.05;;
79137;SDS011;68544;45.566;10.238;2023-05-15T11:50:33;6.03;;;3.58;;
79137;SDS011;68544;45.566;10.238;2023-05-15T11:53:03;3.67;;;2.70;;
79137;SDS011;68544;45.566;10.238;2023-05-15T11:55:30;3.65;;;2.80;;
79137;SDS011;68544;45.566;10.238;2023-05-15T11:57:57;4.75;;;2.80;;
79137;SDS011;68544;45.566;10.238;2023-05-15T12:00:22;3.40;;;2.70;;
79137;SDS011;68544;45.566;10.238;2023-05-15T12:02:48;4.47;;;2.60;;
79137;SDS011;68544;45.566;10.238;2023-05-15T12:05:13;5.22;;;2.88;;
79137;SDS011;68544;45.566;10.238;2023-05-15T12:07:42;3.92;;;2.80;;
79137;SDS011;68544;45.566;10.238;2023-05-15T12:10:09;4.30;;;2.58;;
79137;SDS011;68544;45.566;10.238;2023-05-15T12:12:37;3.47;;;2.33;;
79137;SDS011;68544;45.566;10.238;2023-05-15T12:15:14;3.47;;;2.30;;
79137;SDS011;68544;45.566;10.238;2023-05-15T12:17:41;4.18;;;2.78;;
79137;SDS011;68544;45.566;10.238;2023-05-15T12:20:17;3.78;;;2.55;;
79137;SDS011;68544;45.566;10.238;2023-05-15T12:22:42;5.35;;;2.53;;
79137;SDS011;68544;45.566;10.238;2023-05-15T12:25:13;4.35;;;2.80;;
79137;SDS011;68544;45.566;10.238;2023-05-15T12:27:39;4.65;;;2.80;;
79137;SDS011;68544;45.566;10.238;2023-05-15T12:32:32;3.35;;;2.22;;
79137;SDS011;68544;45.566;10.238;2023-05-15T12:34:59;3.63;;;2.00;;
79137;SDS011;68544;45.566;10.238;2023-05-15T12:37:25;4.65;;;1.85;;
79137;SDS011;68544;45.566;10.238;2023-05-15T12:42:20;3.45;;;1.40;;
79137;SDS011;68544;45.566;10.238;2023-05-15T12:47:14;4.07;;;1.40;;
79137;SDS011;68544;45.566;10.238;2023-05-15T12:52:09;2.92;;;0.75;;
79137;SDS011;68544;45.566;10.238;2023-05-15T12:54:40;4.68;;;1.10;;
79137;SDS011;68544;45.566;10.238;2023-05-15T12:57:09;3.75;;;0.98;;
79137;SDS011;68544;45.566;10.238;2023-05-15T12:59:35;2.53;;;0.90;;
79137;SDS011;68544;45.566;10.238;2023-05-15T13:02:04;3.17;;;1.10;;
79137;SDS011;68544;45.566;10.238;2023-05-15T13:04:32;4.63;;;1.30;;
79137;SDS011;68544;45.566;10.238;2023-05-15T13:09:23;3.85;;;1.27;;
79137;SDS011;68544;45.566;10.238;2023-05-15T13:11:50;3.90;;;1.10;;
79137;SDS011;68544;45.566;10.238;2023-05-15T13:14:18;2.97;;;1.20;;
79137;SDS011;68544;45.566;10.238;2023-05-15T13:16:45;2.58;;;1.15;;
79137;SDS011;68544;45.566;10.238;2023-05-15T13:21:37;2.22;;;1.02;;
79137;SDS011;68544;45.566;10.238;2023-05-15T13:26:28;3.22;;;1.20;;
79137;SDS011;68544;45.566;10.238;2023-05-15T13:28:53;4.95;;;1.30;;
79137;SDS011;68544;45.566;10.238;2023-05-15T13:33:44;6.28;;;1.45;;
79137;SDS011;68544;45.566;10.238;2023-05-15T13:38:35;1.83;;;1.20;;
79137;SDS011;68544;45.566;10.238;2023-05-15T13:41:00;2.38;;;0.80;;
79137;SDS011;68544;45.566;10.238;2023-05-15T13:45:51;5.20;;;1.30;;
79137;SDS011;68544;45.566;10.238;2023-05-15T13:50:41;1.10;;;0.70;;
79137;SDS011;68544;45.566;10.238;2023-05-15T13:53:07;4.82;;;1.05;;
79137;SDS011;68544;45.566;10.238;2023-05-15T13:55:33;4.55;;;1.00;;
79137;SDS011;68544;45.566;10.238;2023-05-15T13:57:58;4.50;;;1.05;;
79137;SDS011;68544;45.566;10.238;2023-05-15T14:00:25;1.88;;;1.10;;
79137;SDS011;68544;45.566;10.238;2023-05-15T14:02:50;2.83;;;1.08;;
79137;SDS011;68544;45.566;10.238;2023-05-15T14:05:16;3.40;;;1.20;;
79137;SDS011;68544;45.566;10.238;2023-05-15T14:10:07;4.03;;;0.73;;
79137;SDS011;68544;45.566;10.238;2023-05-15T14:14:58;1.73;;;0.68;;
79137;SDS011;68544;45.566;10.238;2023-05-15T14:17:25;6.32;;;1.35;;
79137;SDS011;68544;45.566;10.238;2023-05-15T14:19:51;2.88;;;0.95;;
79137;SDS011;68544;45.566;10.238;2023-05-15T14:22:17;2.65;;;1.00;;
79137;SDS011;68544;45.566;10.238;2023-05-15T14:24:42;3.83;;;1.00;;
79137;SDS011;68544;45.566;10.238;2023-05-15T14:27:07;2.38;;;0.90;;
79137;SDS011;68544;45.566;10.238;2023-05-15T14:29:33;3.88;;;0.90;;
79137;SDS011;68544;45.566;10.238;2023-05-15T14:31:58;3.95;;;0.88;;
79137;SDS011;68544;45.566;10.238;2023-05-15T14:36:49;2.45;;;0.80;;
79137;SDS011;68544;45.566;10.238;2023-05-15T14:39:15;2.72;;;0.95;;
79137;SDS011;68544;45.566;10.238;2023-05-15T14:41:41;2.28;;;0.98;;
79137;SDS011;68544;45.566;10.238;2023-05-15T14:44:07;4.25;;;1.40;;
79137;SDS011;68544;45.566;10.238;2023-05-15T14:46:32;2.78;;;0.80;;
79137;SDS011;68544;45.566;10.238;2023-05-15T14:48:58;2.78;;;1.10;;
79137;SDS011;68544;45.566;10.238;2023-05-15T14:53:48;2.53;;;1.13;;
79137;SDS011;68544;45.566;10.238;2023-05-15T14:56:13;3.25;;;1.48;;
79137;SDS011;68544;45.566;10.238;2023-05-15T14:58:39;2.35;;;1.13;;
79137;SDS011;68544;45.566;10.238;2023-05-15T15:01:04;2.83;;;0.75;;
79137;SDS011;68544;45.566;10.238;2023-05-15T15:05:55;2.60;;;0.88;;
79137;SDS011;68544;45.566;10.238;2023-05-15T15:08:21;1.13;;;0.70;;
79137;SDS011;68544;45.566;10.238;2023-05-15T15:10:46;2.75;;;1.30;;
79137;SDS011;68544;45.566;10.238;2023-05-15T15:13:12;4.13;;;1.10;;
79137;SDS011;68544;45.566;10.238;2023-05-15T15:15:38;3.42;;;1.10;;
79137;SDS011;68544;45.566;10.238;2023-05-15T15:18:04;1.67;;;0.80;;
79137;SDS011;68544;45.566;10.238;2023-05-15T15:20:31;1.75;;;0.75;;
79137;SDS011;68544;45.566;10.238;2023-05-15T15:22:56;1.55;;;0.82;;
79137;SDS011;68544;45.566;10.238;2023-05-15T15:27:47;1.98;;;0.60;;
79137;SDS011;68544;45.566;10.238;2023-05-15T15:32:39;1.95;;;0.82;;
79137;SDS011;68544;45.566;10.238;2023-05-15T15:35:06;3.30;;;0.70;;
79137;SDS011;68544;45.566;10.238;2023-05-15T15:40:01;2.10;;;0.80;;
79137;SDS011;68544;45.566;10.238;2023-05-15T15:42:29;2.42;;;1.08;;
79137;SDS011;68544;45.566;10.238;2023-05-15T15:44:55;0.90;;;0.57;;
79137;SDS011;68544;45.566;10.238;2023-05-15T15:47:23;1.20;;;0.68;;
79137;SDS011;68544;45.566;10.238;2023-05-15T15:49:51;3.08;;;0.70;;
79137;SDS011;68544;45.566;10.238;2023-05-15T15:52:17;3.50;;;1.30;;
79137;SDS011;68544;45.566;10.238;2023-05-15T15:54:43;2.85;;;1.70;;